Data for 01/30/2016

Time Sea-Level Adjusted Pressure Absolute Pressure Temperature Relative Humidity Dew Point   
(mb) (inHg) (mb) (inHg) (C) (F) (%) (C) (F)
00:05 1006 29.71 835 24.66 -0.7 30.8 93 -1.7 28.9
00:10 1006 29.71 835 24.66 -0.8 30.5 93 -1.8 28.7
00:15 1006 29.71 836 24.69 -0.9 30.3 93 -1.9 28.5
00:20 1006 29.71 836 24.69 -0.9 30.3 93 -1.9 28.5
00:25 1007 29.74 836 24.69 -0.9 30.4 93 -1.9 28.5
00:30 1007 29.74 836 24.69 -0.9 30.4 92 -2 28.4
00:35 1007 29.74 836 24.69 -0.8 30.5 92 -2 28.4
00:40 1007 29.74 836 24.69 -0.9 30.3 91 -2.3 27.9
00:45 1007 29.74 836 24.69 -1 30.3 90 -2.5 27.5
00:50 1007 29.74 836 24.69 -1 30.1 90 -2.6 27.4
00:55 1007 29.74 836 24.69 -1.1 30.1 89 -2.7 27.2
01:00 1007 29.74 836 24.69 -1.1 30.1 89 -2.6 27.3
01:05 1007 29.74 836 24.69 -1.1 30 90 -2.6 27.3
01:10 1007 29.74 836 24.69 -1.1 30 90 -2.6 27.3
01:15 1007 29.74 836 24.69 -1.1 30 89 -2.6 27.2
01:20 1007 29.74 836 24.69 -1 30.2 87 -2.9 26.9
01:25 1007 29.74 836 24.69 -0.9 30.4 84 -3.3 26.1
01:30 1006 29.71 836 24.69 -0.8 30.6 81 -3.6 25.4
01:35 1006 29.71 836 24.69 -0.7 30.8 76 -4.4 24.1
01:40 1007 29.74 836 24.69 -0.5 31 76 -4.3 24.3
01:45 1007 29.74 836 24.69 -0.6 31 73 -4.7 23.5
01:50 1007 29.74 836 24.69 -0.5 31.2 73 -4.8 23.4
01:55 1006 29.71 836 24.69 -0.4 31.2 71 -5 23
02:00 1006 29.71 836 24.69 -0.4 31.2 71 -5 23
02:05 1006 29.71 836 24.69 -0.6 31 71 -5.2 22.6
02:10 1006 29.71 836 24.69 -0.6 30.9 70 -5.4 22.3
02:15 1006 29.71 836 24.69 -0.7 30.8 72 -5.2 22.7
02:20 1006 29.71 836 24.69 -0.8 30.6 73 -5 23
02:25 1006 29.71 836 24.69 -1 30.2 74 -5.1 22.8
02:30 1006 29.71 836 24.69 -1.1 30 74 -5.1 22.8
02:35 1006 29.71 835 24.66 -1.2 29.8 75 -5.1 22.8
02:40 1006 29.71 836 24.69 -1.3 29.7 74 -5.4 22.3
02:45 1006 29.71 836 24.69 -1.2 29.8 73 -5.5 22.2
02:50 1006 29.71 836 24.69 -1.4 29.5 75 -5.3 22.5
02:55 1006 29.71 835 24.66 -1.7 28.9 75 -5.5 22.1
03:00 1006 29.71 836 24.69 -1.9 28.6 74 -5.9 21.3
03:05 1006 29.71 836 24.69 -1.8 28.8 71 -6.3 20.6
03:10 1006 29.71 836 24.69 -1.6 29.1 68 -6.8 19.7
03:15 1006 29.71 836 24.69 -1.7 29 65 -7.5 18.5
03:20 1006 29.71 835 24.66 -1.5 29.3 57 -9.1 15.7
03:25 1006 29.71 836 24.69 -1 30.1 55 -9.1 15.7
03:30 1006 29.71 836 24.69 -1.3 29.6 58 -8.6 16.6
03:35 1006 29.71 835 24.66 -1.7 28.9 61 -8.3 17
03:40 1006 29.71 835 24.66 -1.9 28.5 60 -8.6 16.4
03:45 1006 29.71 836 24.69 -1.8 28.7 60 -8.7 16.3
03:50 1006 29.71 836 24.69 -1.7 28.9 59 -8.6 16.5
03:55 1006 29.71 836 24.69 -1.7 28.9 60 -8.4 16.9
04:00 1006 29.71 835 24.66 -1.6 29.1 60 -8.5 16.8
04:05 1006 29.71 835 24.66 -1.5 29.3 59 -8.5 16.6
04:10 1006 29.71 836 24.69 -1.5 29.3 59 -8.6 16.5
04:15 1006 29.71 836 24.69 -1.7 29 59 -8.8 16.2
04:20 1006 29.71 836 24.69 -1.9 28.6 59 -9 15.9
04:25 1006 29.71 836 24.69 -2.2 28.1 59 -9 15.7
04:30 1006 29.71 836 24.69 -2.4 27.7 60 -9.1 15.7
04:35 1006 29.71 835 24.66 -2.6 27.3 59 -9.6 14.8
04:40 1006 29.71 836 24.69 -2.7 27.2 58 -9.7 14.5
04:45 1007 29.74 836 24.69 -2.5 27.5 57 -10 14
04:50 1007 29.74 836 24.69 -2.3 27.8 56 -9.9 14.1
04:55 1007 29.74 836 24.69 -2.3 27.9 54 -10.4 13.3
05:00 1007 29.74 836 24.69 -1.8 28.7 53 -10.2 13.6
05:05 1007 29.74 836 24.69 -1.9 28.6 54 -10.1 13.8
05:10 1007 29.74 836 24.69 -2.1 28.3 54 -10.1 13.9
05:15 1007 29.74 836 24.69 -2.3 27.8 55 -10.3 13.5
05:20 1007 29.74 836 24.69 -2.6 27.3 60 -9.3 15.3
05:25 1007 29.74 836 24.69 -3.5 25.7 63 -9.5 14.9
05:30 1007 29.74 836 24.69 -3.8 25.2 63 -9.9 14.2
05:35 1007 29.74 836 24.69 -3.5 25.7 61 -10 14
05:40 1007 29.74 836 24.69 -3.4 25.8 60 -10 13.9
05:45 1007 29.74 836 24.69 -3.5 25.8 60 -10.1 13.9
05:50 1007 29.74 836 24.69 -3.3 26 59 -10.3 13.5
05:55 1007 29.74 836 24.69 -3.3 26.1 59 -10.2 13.6
06:00 1007 29.74 836 24.69 -3.3 26 58 -10.5 13.1
06:05 1007 29.74 836 24.69 -3.2 26.2 58 -10.3 13.5
06:10 1007 29.74 837 24.72 -3.4 25.9 61 -9.8 14.3
06:15 1007 29.74 837 24.72 -3.9 25 62 -10.2 13.7
06:20 1007 29.74 837 24.72 -4.1 24.5 63 -10.3 13.5
06:25 1007 29.74 837 24.72 -4.2 24.5 62 -10.5 13.2
06:30 1007 29.74 836 24.69 -4 24.8 58 -11.1 12.1
06:35 1007 29.74 836 24.69 -3.7 25.3 57 -11 12.2
06:40 1007 29.74 836 24.69 -4 24.9 57 -11.3 11.7
06:45 1007 29.74 836 24.69 -4.1 24.7 57 -11.4 11.5
06:50 1007 29.74 836 24.69 -3.8 25.2 57 -11.1 12
06:55 1007 29.74 837 24.72 -3.9 24.9 60 -10.5 13
07:00 1007 29.74 837 24.72 -4.4 24.1 61 -10.8 12.6
07:05 1008 29.77 837 24.72 -4 24.8 58 -11.1 12
07:10 1008 29.77 837 24.72 -3.7 25.3 59 -10.7 12.8
07:15 1008 29.77 837 24.72 -3.8 25.1 58 -10.8 12.5
07:20 1008 29.77 837 24.72 -4 24.9 60 -10.7 12.7
07:25 1008 29.77 837 24.72 -4.2 24.5 60 -10.8 12.6
07:30 1008 29.77 837 24.72 -4.3 24.2 61 -10.7 12.7
07:35 1008 29.77 837 24.72 -4.5 23.9 62 -10.8 12.6
07:40 1008 29.77 837 24.72 -4.4 24.1 60 -11 12.2
07:45 1008 29.77 837 24.72 -4.4 24 60 -11 12.2
07:50 1008 29.77 837 24.72 -4.4 24 61 -11 12.3
07:55 1008 29.77 837 24.72 -4.5 23.8 61 -11.1 12.1
08:00 1008 29.77 837 24.72 -4.7 23.5 61 -11.2 11.9
08:05 1008 29.77 837 24.72 -4.9 23.3 61 -11.4 11.5
08:10 1008 29.77 837 24.72 -4.7 23.6 59 -11.5 11.4
08:15 1008 29.77 837 24.72 -4.8 23.4 59 -11.6 11.1
08:20 1008 29.77 837 24.72 -4.6 23.8 59 -11.5 11.4
08:25 1008 29.77 837 24.72 -4.8 23.4 60 -11.4 11.5
08:30 1008 29.77 837 24.72 -5.1 22.8 62 -11.3 11.6
08:35 1008 29.77 837 24.72 -5.6 21.8 63 -11.6 11.2
08:40 1008 29.77 837 24.72 -5.9 21.3 65 -11.4 11.5
08:45 1008 29.77 837 24.72 -6.4 20.4 67 -11.6 11.1
08:50 1008 29.77 837 24.72 -6.5 20.3 63 -12.4 9.6
08:55 1008 29.77 837 24.72 -5.6 22 60 -12.2 10.1
09:00 1008 29.77 837 24.72 -5.3 22.5 59 -12 10.4
09:05 1008 29.77 837 24.72 -4.9 23.2 57 -12.1 10.3
09:10 1008 29.77 837 24.72 -4.9 23.1 58 -11.9 10.5
09:15 1008 29.77 837 24.72 -4.9 23.2 56 -12.4 9.7
09:20 1008 29.77 837 24.72 -4.5 23.9 56 -12.1 10.2
09:25 1008 29.77 837 24.72 -4.7 23.5 58 -11.8 10.8
09:30 1008 29.77 837 24.72 -5 23 57 -12.2 10.1
09:35 1008 29.77 837 24.72 -4.7 23.6 57 -11.9 10.6
09:40 1008 29.77 837 24.72 -5.1 22.9 61 -11.5 11.3
09:45 1008 29.77 837 24.72 -5.5 22.1 65 -11.1 12
09:50 1008 29.77 837 24.72 -5.9 21.4 67 -11 12.1
09:55 1008 29.77 837 24.72 -5.4 22.4 60 -12.1 10.3
10:00 1008 29.77 837 24.72 -4.3 24.2 55 -12 10.4
10:05 1008 29.77 837 24.72 -3.8 25.2 56 -11.4 11.5
10:10 1008 29.77 837 24.72 -3.9 25 58 -11 12.2
10:15 1008 29.77 837 24.72 -4.1 24.7 56 -11.7 11
10:20 1008 29.77 837 24.72 -3.7 25.4 54 -11.8 10.8
10:25 1008 29.77 837 24.72 -3.1 26.5 54 -11.2 11.9
10:30 1008 29.77 837 24.72 -3.5 25.7 60 -10.2 13.7
10:35 1008 29.77 838 24.75 -4.1 24.6 61 -10.6 12.9
10:40 1008 29.77 838 24.75 -4.3 24.3 59 -11.1 12
10:45 1008 29.77 838 24.75 -4 24.7 59 -11 12.2
10:50 1008 29.77 838 24.75 -3.7 25.4 54 -11.6 11.1
10:55 1009 29.8 838 24.75 -2.6 27.2 55 -10.4 13.3
11:00 1009 29.8 838 24.75 -2.3 27.8 56 -10 14
11:05 1009 29.8 838 24.75 -2.2 28 54 -10.4 13.2
11:10 1009 29.8 838 24.75 -1.9 28.6 58 -9.2 15.5
11:15 1009 29.8 838 24.75 -1.5 29.3 51 -10.3 13.4
11:20 1009 29.8 838 24.75 -1.7 29 53 -10.1 13.8
11:25 1009 29.8 838 24.75 -1.6 29.2 50 -10.7 12.8
11:30 1009 29.8 838 24.75 -1.1 30.1 48 -10.8 12.5
11:35 1009 29.8 838 24.75 -0.9 30.5 50 -10 14
11:40 1009 29.8 838 24.75 -0.7 30.8 50 -9.9 14.2
11:45 1009 29.8 838 24.75 -0.4 31.3 53 -8.7 16.3
11:50 1009 29.8 838 24.75 -0.3 31.5 53 -8.7 16.4
11:55 1009 29.8 838 24.75 -0.2 31.6 53 -8.7 16.4
12:00 1009 29.8 838 24.75 0.2 32.4 48 -9.6 14.7
12:05 1009 29.8 838 24.75 0.5 32.8 46 -10 14
12:10 1009 29.8 838 24.75 1.2 34.1 45 -9.6 14.8
12:15 1009 29.8 838 24.75 0.8 33.4 43 -10.5 13
12:20 1009 29.8 838 24.75 0.1 32.3 44 -10.7 12.8
12:25 1009 29.8 838 24.75 -0.1 31.8 46 -10.5 13.2
12:30 1009 29.8 838 24.75 -0.2 31.7 45 -10.7 12.7
12:35 1009 29.8 838 24.75 -0.1 31.8 43 -11.1 12
12:40 1009 29.8 838 24.75 0.1 32.2 43 -11.1 12
12:45 1009 29.8 838 24.75 0 32 43 -11.1 12.1
12:50 1009 29.8 838 24.75 0.2 32.4 42 -11.1 12
12:55 1009 29.8 838 24.75 0.3 32.5 43 -10.8 12.6
13:00 1009 29.8 838 24.75 0.4 32.8 41 -11.2 11.8
13:05 1008 29.77 838 24.75 0.4 32.8 43 -10.6 12.8
13:10 1008 29.77 838 24.75 -0.1 31.8 45 -10.8 12.6
13:15 1008 29.77 838 24.75 0.7 33.2 42 -10.9 12.4
13:20 1008 29.77 837 24.72 0.1 32.2 46 -10.2 13.6
13:25 1008 29.77 837 24.72 0.2 32.3 43 -11 12.1
13:30 1008 29.77 837 24.72 0.9 33.6 42 -10.8 12.6
13:35 1008 29.77 837 24.72 1.4 34.6 39 -11.1 12.1
13:40 1008 29.77 837 24.72 1.5 34.7 41 -10.3 13.5
13:45 1008 29.77 837 24.72 1.8 35.3 40 -10.5 13.2
13:50 1008 29.77 837 24.72 2.7 36.8 37 -10.6 13
13:55 1008 29.77 837 24.72 3.1 37.6 37 -10.4 13.3
14:00 1008 29.77 837 24.72 3.1 37.5 37 -10.1 13.8
14:05 1008 29.77 837 24.72 3.4 38.1 38 -9.5 14.9
14:10 1008 29.77 837 24.72 2.7 36.9 37 -10.5 13.1
14:15 1008 29.77 837 24.72 1.9 35.5 41 -10 14
14:20 1008 29.77 837 24.72 1.6 34.8 40 -10.7 12.7
14:25 1008 29.77 837 24.72 1.2 34.2 41 -10.5 13
14:30 1008 29.77 837 24.72 1.1 34.1 40 -11.1 12.1
14:35 1008 29.77 837 24.72 1.7 35.1 40 -10.5 13.1
14:40 1008 29.77 837 24.72 2.6 36.7 37 -10.8 12.6
14:45 1008 29.77 837 24.72 2.6 36.8 36 -10.9 12.3
14:50 1008 29.77 837 24.72 2.3 36.1 39 -10.4 13.2
14:55 1008 29.77 837 24.72 2 35.6 39 -10.4 13.3
15:00 1008 29.77 837 24.72 2 35.6 40 -10.2 13.6
15:05 1008 29.77 837 24.72 1.9 35.4 40 -10.5 13.2
15:10 1008 29.77 837 24.72 2 35.6 42 -9.6 14.7
15:15 1008 29.77 837 24.72 1.6 34.9 42 -10.1 13.9
15:20 1008 29.77 837 24.72 1.7 35 42 -9.9 14.2
15:25 1008 29.77 837 24.72 0.7 33.3 45 -10 14.1
15:30 1008 29.77 837 24.72 0.7 33.3 47 -9.3 15.3
15:35 1008 29.77 837 24.72 0.5 33 49 -9.1 15.6
15:40 1008 29.77 837 24.72 0.4 32.7 49 -9.1 15.7
15:45 1008 29.77 837 24.72 0.1 32.2 50 -9 15.8
15:50 1008 29.77 837 24.72 0.4 32.6 50 -8.9 16
15:55 1008 29.77 837 24.72 1.1 33.9 48 -8.8 16.2
16:00 1008 29.77 837 24.72 1.3 34.3 47 -8.7 16.3
16:05 1008 29.77 837 24.72 0.8 33.5 49 -8.7 16.4
16:10 1008 29.77 837 24.72 0.6 33 51 -8.5 16.7
16:15 1008 29.77 837 24.72 0.4 32.7 52 -8.2 17.2
16:20 1008 29.77 838 24.75 0 32.1 54 -8.2 17.3
16:25 1008 29.77 838 24.75 -0.4 31.3 55 -8.3 17.1
16:30 1008 29.77 838 24.75 -1.1 29.9 57 -8.5 16.6
16:35 1008 29.77 838 24.75 -1.2 29.8 58 -8.5 16.8
16:40 1008 29.77 838 24.75 -1.1 30 58 -8.4 16.9
16:45 1008 29.77 838 24.75 -1.2 29.9 58 -8.4 16.8
16:50 1008 29.77 838 24.75 -1.1 30 60 -7.9 17.8
16:55 1008 29.77 838 24.75 -0.8 30.5 56 -8.5 16.7
17:00 1008 29.77 838 24.75 -0.8 30.6 58 -7.9 17.7
17:05 1009 29.8 838 24.75 -0.9 30.4 58 -8.2 17.2
17:10 1009 29.8 838 24.75 -0.9 30.4 58 -8.1 17.4
17:15 1009 29.8 838 24.75 -1 30.3 60 -7.8 18
17:20 1009 29.8 838 24.75 -1 30.2 59 -8 17.6
17:25 1009 29.8 838 24.75 -1 30.3 60 -7.9 17.8
17:30 1009 29.8 838 24.75 -1.3 29.7 65 -7 19.4
17:35 1009 29.8 838 24.75 -1.8 28.7 69 -6.8 19.7
17:40 1009 29.8 838 24.75 -2 28.4 75 -5.8 21.5
17:45 1009 29.8 838 24.75 -2.4 27.7 76 -6 21.2
17:50 1009 29.8 838 24.75 -2.6 27.3 79 -5.8 21.6
17:55 1009 29.8 838 24.75 -2.8 26.9 79 -6 21.3
18:00 1009 29.8 838 24.75 -2.7 27.1 78 -6 21.1
18:05 1009 29.8 838 24.75 -2.7 27.2 77 -6.2 20.8
18:10 1009 29.8 839 24.78 -2.6 27.3 75 -6.4 20.5
18:15 1009 29.8 839 24.78 -2.7 27.2 76 -6.3 20.6
18:20 1009 29.8 839 24.78 -2.6 27.3 76 -6.2 20.8
18:25 1010 29.83 839 24.78 -2.8 27 78 -6.1 21.1
18:30 1010 29.83 839 24.78 -3 26.7 82 -5.7 21.7
18:35 1010 29.83 839 24.78 -3.1 26.4 83 -5.7 21.8
18:40 1010 29.83 839 24.78 -3.1 26.4 82 -5.7 21.7
18:45 1010 29.83 839 24.78 -3 26.6 82 -5.7 21.7
18:50 1010 29.83 839 24.78 -2.9 26.7 80 -5.9 21.3
18:55 1010 29.83 839 24.78 -2.9 26.8 80 -5.9 21.3
19:00 1010 29.83 839 24.78 -2.9 26.8 79 -6.1 21.1
19:05 1010 29.83 839 24.78 -2.8 26.9 78 -6.1 21
19:10 1010 29.83 839 24.78 -2.8 26.9 79 -6 21.3
19:15 1010 29.83 839 24.78 -3 26.7 80 -5.9 21.3
19:20 1010 29.83 839 24.78 -3.1 26.4 81 -5.9 21.4
19:25 1010 29.83 839 24.78 -3.1 26.4 82 -5.9 21.5
19:30 1010 29.83 839 24.78 -3 26.7 80 -5.9 21.3
19:35 1010 29.83 839 24.78 -2.8 27 77 -6.3 20.7
19:40 1010 29.83 840 24.81 -2.7 27.2 76 -6.4 20.4
19:45 1010 29.83 839 24.78 -2.7 27.2 73 -6.9 19.6
19:50 1010 29.83 840 24.81 -2.7 27.1 73 -6.9 19.5
19:55 1010 29.83 840 24.81 -2.7 27.2 72 -7.1 19.2
20:00 1010 29.83 840 24.81 -2.6 27.2 71 -7.2 19.1
20:05 1010 29.83 840 24.81 -2.7 27.1 71 -7.2 19
20:10 1010 29.83 840 24.81 -2.8 27 71 -7.3 18.9
20:15 1010 29.83 840 24.81 -3 26.6 72 -7.4 18.7
20:20 1011 29.85 840 24.81 -3.1 26.5 71 -7.6 18.3
20:25 1011 29.85 840 24.81 -3 26.6 70 -7.6 18.3
20:30 1011 29.85 840 24.81 -3 26.7 70 -7.7 18.2
20:35 1011 29.85 840 24.81 -2.9 26.7 70 -7.7 18.1
20:40 1011 29.85 840 24.81 -2.9 26.8 69 -7.8 18
20:45 1011 29.85 840 24.81 -2.8 26.9 70 -7.7 18.2
20:50 1011 29.85 840 24.81 -3 26.7 69 -7.8 17.9
20:55 1011 29.85 840 24.81 -3.2 26.3 71 -7.8 17.9
21:00 1011 29.85 840 24.81 -3.5 25.7 71 -8.1 17.5
21:05 1011 29.85 840 24.81 -3.7 25.3 72 -8.1 17.4
21:10 1011 29.85 840 24.81 -4 24.8 72 -8.3 17
21:15 1011 29.85 840 24.81 -4.3 24.3 73 -8.4 16.9
21:20 1011 29.85 840 24.81 -4.4 24.1 73 -8.5 16.7
21:25 1011 29.85 840 24.81 -4.5 24 73 -8.7 16.4
21:30 1011 29.85 840 24.81 -4.1 24.6 71 -8.7 16.3
21:35 1011 29.85 840 24.81 -3.8 25.1 69 -8.8 16.2
21:40 1011 29.85 840 24.81 -3.8 25.2 70 -8.4 16.8
21:45 1011 29.85 840 24.81 -4.1 24.6 70 -8.8 16.1
21:50 1011 29.85 840 24.81 -4.2 24.4 70 -8.8 16.1
21:55 1011 29.85 840 24.81 -4.5 23.9 72 -8.9 16
22:00 1011 29.85 840 24.81 -4.6 23.8 70 -9.2 15.5
22:05 1011 29.85 840 24.81 -4.7 23.6 71 -9.1 15.6
22:10 1011 29.85 840 24.81 -4.7 23.5 72 -9.1 15.6
22:15 1011 29.85 840 24.81 -4.6 23.8 71 -9.1 15.6
22:20 1011 29.85 840 24.81 -4.4 24 71 -9 15.8
22:25 1011 29.85 840 24.81 -4.4 24.1 70 -9.1 15.7
22:30 1011 29.85 840 24.81 -4.5 23.9 70 -9.1 15.5
22:35 1011 29.85 840 24.81 -4.3 24.3 70 -9 15.9
22:40 1011 29.85 840 24.81 -4.1 24.7 70 -8.8 16.2
22:45 1011 29.85 840 24.81 -4.3 24.2 71 -8.8 16.1
22:50 1011 29.85 840 24.81 -4.5 23.9 72 -8.8 16.2
22:55 1011 29.85 840 24.81 -4.6 23.6 73 -8.8 16.1
23:00 1011 29.85 840 24.81 -4.7 23.5 72 -9 15.8
23:05 1011 29.85 840 24.81 -4.5 24 70 -9.1 15.6
23:10 1011 29.85 840 24.81 -4.3 24.3 70 -8.9 15.9
23:15 1011 29.85 840 24.81 -4.2 24.5 71 -8.7 16.3
23:20 1011 29.85 840 24.81 -4.1 24.5 70 -8.8 16.1
23:25 1011 29.85 840 24.81 -4.4 24.2 71 -8.8 16.1
23:30 1011 29.85 840 24.81 -4.6 23.8 72 -8.8 16.1
23:35 1011 29.85 840 24.81 -4.7 23.5 73 -8.8 16.1
23:40 1011 29.85 840 24.81 -4.9 23.1 74 -8.8 16.1
23:45 1011 29.85 840 24.81 -5 22.9 75 -8.9 16
23:50 1011 29.85 840 24.81 -5 23 74 -8.9 15.9
23:55 1011 29.85 840 24.81 -4.9 23.1 74 -8.9 16
24:00 1011 29.85 840 24.81 -4.9 23.2 74 -8.8 16.1